SDM669 ULLI-ULPB
Flight info
| Callsign | SDM669 |
|---|---|
| Flight time | 0h 38m |
| Altitude | 31000 |
| Route | RELNI1A RELNI T693 DISUP T821 BOBMU BOBMU2G |
| Aircraft | A320/M-SDE3FGHIRWY/LB1 |
Departure
| Time | 2026-04-26 18:38 |
|---|---|
| Airport | Pulkovo Airport (ULLI) |
Arrival
| Time | 2026-04-26 19:16 |
|---|---|
| Airport | Petrozavodsk Airport (ULPB) |
| Time | Latitude | Longitude | Altitude | Speed | Heading |
|---|---|---|---|---|---|
| 2026-04-26 18:06 | 59.79941 | 30.26369 | 85 ft | 0 kts | 285° |
| 2026-04-26 18:24 | 59.79944 | 30.26348 | 85 ft | 4 kts | 287° |
| 2026-04-26 18:24 | 59.79956 | 30.26280 | 85 ft | 5 kts | 303° |
| 2026-04-26 18:24 | 59.79995 | 30.26257 | 85 ft | 6 kts | 7° |
| 2026-04-26 18:24 | 59.80046 | 30.26284 | 85 ft | 8 kts | 15° |
| 2026-04-26 18:25 | 59.80119 | 30.26325 | 85 ft | 13 kts | 15° |
| 2026-04-26 18:25 | 59.80212 | 30.26380 | 83 ft | 15 kts | 16° |
| 2026-04-26 18:25 | 59.80280 | 30.26420 | 81 ft | 0 kts | 15° |
| 2026-04-26 18:26 | 59.80296 | 30.26429 | 80 ft | 6 kts | 14° |
| 2026-04-26 18:26 | 59.80356 | 30.26447 | 79 ft | 10 kts | 6° |
| 2026-04-26 18:26 | 59.80429 | 30.26507 | 76 ft | 12 kts | 56° |
| 2026-04-26 18:26 | 59.80425 | 30.26676 | 76 ft | 13 kts | 106° |
| 2026-04-26 18:27 | 59.80396 | 30.26867 | 77 ft | 15 kts | 106° |
| 2026-04-26 18:27 | 59.80365 | 30.27087 | 76 ft | 18 kts | 105° |
| 2026-04-26 18:27 | 59.80324 | 30.27353 | 75 ft | 20 kts | 105° |
| 2026-04-26 18:27 | 59.80285 | 30.27622 | 76 ft | 19 kts | 106° |
| 2026-04-26 18:28 | 59.80244 | 30.27905 | 73 ft | 22 kts | 106° |
| 2026-04-26 18:28 | 59.80201 | 30.28207 | 72 ft | 22 kts | 105° |
| 2026-04-26 18:28 | 59.80156 | 30.28504 | 72 ft | 21 kts | 107° |
| 2026-04-26 18:28 | 59.80113 | 30.28790 | 72 ft | 21 kts | 107° |
| 2026-04-26 18:29 | 59.80069 | 30.29075 | 70 ft | 21 kts | 105° |
| 2026-04-26 18:29 | 59.80028 | 30.29352 | 71 ft | 20 kts | 105° |
| 2026-04-26 18:29 | 59.79990 | 30.29614 | 72 ft | 14 kts | 107° |
| 2026-04-26 18:29 | 59.79982 | 30.29660 | 72 ft | 0 kts | 107° |
| 2026-04-26 18:31 | 59.79982 | 30.29662 | 72 ft | 1 kts | 107° |
| 2026-04-26 18:31 | 59.79966 | 30.29761 | 72 ft | 11 kts | 106° |
| 2026-04-26 18:31 | 59.79944 | 30.29927 | 73 ft | 12 kts | 101° |
| 2026-04-26 18:32 | 59.79946 | 30.30015 | 74 ft | 0 kts | 65° |
| 2026-04-26 18:33 | 59.79949 | 30.30026 | 74 ft | 5 kts | 60° |
| 2026-04-26 18:34 | 59.79988 | 30.30126 | 72 ft | 0 kts | 47° |
| 2026-04-26 18:35 | 59.79991 | 30.30133 | 72 ft | 6 kts | 47° |
| 2026-04-26 18:35 | 59.80056 | 30.30253 | 72 ft | 11 kts | 30° |
| 2026-04-26 18:35 | 59.80123 | 30.30221 | 72 ft | 11 kts | 286° |
| 2026-04-26 18:36 | 59.80129 | 30.30181 | 72 ft | 0 kts | 288° |
| 2026-04-26 18:37 | 59.80151 | 30.30051 | 72 ft | 26 kts | 289° |
| 2026-04-26 18:37 | 59.80288 | 30.29200 | 69 ft | 99 kts | 286° |
| 2026-04-26 18:37 | 59.80533 | 30.27511 | 127 ft | 149 kts | 290° |
| 2026-04-26 18:38 | 59.80843 | 30.25457 | 710 ft | 155 kts | 293° |
| 2026-04-26 18:38 | 59.81127 | 30.23432 | 1577 ft | 152 kts | 296° |
| 2026-04-26 18:38 | 59.81413 | 30.21460 | 2269 ft | 157 kts | 298° |
| 2026-04-26 18:38 | 59.81744 | 30.19299 | 2799 ft | 173 kts | 299° |
| 2026-04-26 18:39 | 59.82113 | 30.16892 | 3235 ft | 192 kts | 299° |
| 2026-04-26 18:39 | 59.82520 | 30.14233 | 3688 ft | 212 kts | 298° |
| 2026-04-26 18:39 | 59.82941 | 30.11388 | 4413 ft | 220 kts | 297° |
| 2026-04-26 18:39 | 59.83371 | 30.08437 | 5223 ft | 225 kts | 296° |
| 2026-04-26 18:40 | 59.83806 | 30.05437 | 6040 ft | 230 kts | 295° |
| 2026-04-26 18:40 | 59.84326 | 30.02445 | 6822 ft | 228 kts | 309° |
| 2026-04-26 18:40 | 59.85376 | 30.00309 | 7641 ft | 215 kts | 336° |
| 2026-04-26 18:40 | 59.86758 | 29.99434 | 8243 ft | 211 kts | 359° |
| 2026-04-26 18:41 | 59.88197 | 29.99825 | 8549 ft | 211 kts | 15° |
| 2026-04-26 18:41 | 59.89612 | 30.00647 | 8570 ft | 212 kts | 15° |
| 2026-04-26 18:41 | 59.91034 | 30.01465 | 8581 ft | 212 kts | 17° |
| 2026-04-26 18:41 | 59.92352 | 30.03002 | 8598 ft | 236 kts | 40° |
| 2026-04-26 18:42 | 59.93528 | 30.05353 | 8592 ft | 243 kts | 39° |
| 2026-04-26 18:42 | 59.94764 | 30.07653 | 8637 ft | 248 kts | 38° |
| 2026-04-26 18:42 | 59.96062 | 30.10020 | 9281 ft | 255 kts | 39° |
| 2026-04-26 18:42 | 59.97337 | 30.12344 | 10271 ft | 253 kts | 38° |
| 2026-04-26 18:43 | 59.98674 | 30.14774 | 10821 ft | 269 kts | 38° |
| 2026-04-26 18:43 | 60.00094 | 30.17346 | 11238 ft | 286 kts | 38° |
| 2026-04-26 18:43 | 60.01599 | 30.20074 | 11620 ft | 304 kts | 39° |
| 2026-04-26 18:43 | 60.03189 | 30.22966 | 12246 ft | 313 kts | 39° |
| 2026-04-26 18:44 | 60.04808 | 30.25922 | 13053 ft | 317 kts | 39° |
| 2026-04-26 18:44 | 60.06426 | 30.28880 | 13791 ft | 320 kts | 39° |
| 2026-04-26 18:44 | 60.08071 | 30.31886 | 14503 ft | 325 kts | 39° |
| 2026-04-26 18:44 | 60.09738 | 30.34939 | 15176 ft | 330 kts | 40° |
| 2026-04-26 18:45 | 60.11459 | 30.38084 | 15915 ft | 334 kts | 39° |
| 2026-04-26 18:45 | 60.13176 | 30.41213 | 16583 ft | 338 kts | 39° |
| 2026-04-26 18:45 | 60.14932 | 30.44419 | 17257 ft | 342 kts | 39° |
| 2026-04-26 18:45 | 60.16694 | 30.47651 | 17941 ft | 346 kts | 39° |
| 2026-04-26 18:46 | 60.18462 | 30.50900 | 18580 ft | 350 kts | 39° |
| 2026-04-26 18:46 | 60.20253 | 30.54201 | 19197 ft | 354 kts | 40° |
| 2026-04-26 18:46 | 60.22072 | 30.57558 | 19816 ft | 357 kts | 40° |
| 2026-04-26 18:46 | 60.23909 | 30.60952 | 20424 ft | 361 kts | 40° |
| 2026-04-26 18:47 | 60.25767 | 30.64394 | 21003 ft | 364 kts | 40° |
| 2026-04-26 18:47 | 60.27631 | 30.67866 | 21565 ft | 368 kts | 41° |
| 2026-04-26 18:47 | 60.29499 | 30.71356 | 22132 ft | 371 kts | 41° |
| 2026-04-26 18:47 | 60.31401 | 30.74914 | 22681 ft | 374 kts | 41° |
| 2026-04-26 18:48 | 60.33290 | 30.78448 | 23199 ft | 377 kts | 41° |
| 2026-04-26 18:48 | 60.35220 | 30.82061 | 23711 ft | 380 kts | 41° |
| 2026-04-26 18:48 | 60.37195 | 30.85759 | 24208 ft | 384 kts | 41° |
| 2026-04-26 18:48 | 60.39134 | 30.89397 | 24680 ft | 387 kts | 41° |
| 2026-04-26 18:49 | 60.41121 | 30.93135 | 25131 ft | 389 kts | 41° |
| 2026-04-26 18:49 | 60.43116 | 30.96890 | 25502 ft | 393 kts | 41° |
| 2026-04-26 18:49 | 60.45138 | 31.00704 | 25844 ft | 396 kts | 41° |
| 2026-04-26 18:49 | 60.47148 | 31.04502 | 26144 ft | 400 kts | 41° |
| 2026-04-26 18:50 | 60.49197 | 31.08381 | 26462 ft | 403 kts | 41° |
| 2026-04-26 18:50 | 60.51235 | 31.12246 | 26740 ft | 407 kts | 42° |
| 2026-04-26 18:50 | 60.53284 | 31.16137 | 27079 ft | 408 kts | 42° |
| 2026-04-26 18:50 | 60.55353 | 31.20074 | 27452 ft | 409 kts | 42° |
| 2026-04-26 18:51 | 60.57427 | 31.24028 | 27802 ft | 410 kts | 42° |
| 2026-04-26 18:51 | 60.59513 | 31.28012 | 28137 ft | 411 kts | 42° |
| 2026-04-26 18:51 | 60.61585 | 31.31978 | 28464 ft | 412 kts | 42° |
| 2026-04-26 18:51 | 60.63660 | 31.35955 | 28782 ft | 414 kts | 42° |
| 2026-04-26 18:52 | 60.65779 | 31.40024 | 29061 ft | 416 kts | 42° |
| 2026-04-26 18:52 | 60.67867 | 31.44042 | 29318 ft | 419 kts | 42° |
| 2026-04-26 18:52 | 60.70000 | 31.48155 | 29571 ft | 422 kts | 42° |
| 2026-04-26 18:52 | 60.72121 | 31.52249 | 29831 ft | 424 kts | 42° |
| 2026-04-26 18:53 | 60.74253 | 31.56376 | 30076 ft | 427 kts | 42° |
| 2026-04-26 18:53 | 60.76402 | 31.60542 | 30289 ft | 428 kts | 42° |
| 2026-04-26 18:53 | 60.80719 | 31.68946 | 29568 ft | 437 kts | 43° |
| 2026-04-26 18:54 | 60.82909 | 31.73234 | 28923 ft | 439 kts | 43° |
| 2026-04-26 18:54 | 60.85086 | 31.77503 | 28390 ft | 436 kts | 43° |
| 2026-04-26 18:54 | 60.87196 | 31.81937 | 27844 ft | 433 kts | 49° |
| 2026-04-26 18:54 | 60.89050 | 31.86770 | 27297 ft | 430 kts | 52° |
| 2026-04-26 18:55 | 60.90782 | 31.91560 | 26515 ft | 422 kts | 52° |
| 2026-04-26 18:55 | 60.92490 | 31.96299 | 25753 ft | 408 kts | 52° |
| 2026-04-26 18:55 | 60.94152 | 32.00866 | 25100 ft | 390 kts | 52° |
| 2026-04-26 18:55 | 60.95750 | 32.05222 | 24158 ft | 380 kts | 52° |
| 2026-04-26 18:56 | 60.97311 | 32.09447 | 23070 ft | 373 kts | 52° |
| 2026-04-26 18:56 | 60.98866 | 32.13643 | 21817 ft | 371 kts | 52° |
| 2026-04-26 18:56 | 61.00398 | 32.17774 | 20943 ft | 364 kts | 52° |
| 2026-04-26 18:56 | 61.01932 | 32.21918 | 20591 ft | 364 kts | 52° |
| 2026-04-26 18:57 | 61.03460 | 32.26048 | 20157 ft | 362 kts | 52° |
| 2026-04-26 18:57 | 61.04467 | 32.28770 | 19852 ft | 360 kts | 53° |
| 2026-04-26 18:57 | 61.06477 | 32.34216 | 19220 ft | 356 kts | 53° |
| 2026-04-26 18:57 | 61.07977 | 32.38290 | 18734 ft | 353 kts | 53° |
| 2026-04-26 18:58 | 61.09448 | 32.42294 | 18321 ft | 348 kts | 53° |
| 2026-04-26 18:58 | 61.10903 | 32.46249 | 17952 ft | 349 kts | 52° |
| 2026-04-26 18:58 | 61.12382 | 32.50251 | 17596 ft | 350 kts | 52° |
| 2026-04-26 18:58 | 61.13858 | 32.54250 | 17226 ft | 349 kts | 52° |
| 2026-04-26 18:59 | 61.15332 | 32.58259 | 16798 ft | 347 kts | 53° |
| 2026-04-26 18:59 | 61.16763 | 32.62168 | 16348 ft | 344 kts | 53° |
| 2026-04-26 18:59 | 61.18201 | 32.66107 | 15878 ft | 342 kts | 54° |
| 2026-04-26 18:59 | 61.19639 | 32.70071 | 15396 ft | 339 kts | 54° |
| 2026-04-26 19:00 | 61.21022 | 32.73895 | 14709 ft | 334 kts | 54° |
| 2026-04-26 19:00 | 61.22396 | 32.77695 | 13911 ft | 330 kts | 54° |
| 2026-04-26 19:00 | 61.23783 | 32.81531 | 13655 ft | 333 kts | 53° |
| 2026-04-26 19:00 | 61.25166 | 32.85366 | 13397 ft | 333 kts | 53° |
| 2026-04-26 19:01 | 61.26550 | 32.89204 | 13061 ft | 333 kts | 54° |
| 2026-04-26 19:01 | 61.27931 | 32.93043 | 12651 ft | 332 kts | 53° |
| 2026-04-26 19:01 | 61.29304 | 32.96868 | 12237 ft | 329 kts | 53° |
| 2026-04-26 19:01 | 61.30653 | 33.00629 | 11793 ft | 327 kts | 53° |
| 2026-04-26 19:02 | 61.32016 | 33.04437 | 11350 ft | 325 kts | 53° |
| 2026-04-26 19:02 | 61.33351 | 33.08171 | 10913 ft | 322 kts | 53° |
| 2026-04-26 19:02 | 61.34669 | 33.11864 | 10481 ft | 319 kts | 53° |
| 2026-04-26 19:02 | 61.35550 | 33.14333 | 10187 ft | 317 kts | 53° |
| 2026-04-26 19:03 | 61.37265 | 33.19150 | 9815 ft | 305 kts | 53° |
| 2026-04-26 19:03 | 61.38501 | 33.22627 | 9708 ft | 291 kts | 53° |
| 2026-04-26 19:03 | 61.39674 | 33.25930 | 9620 ft | 277 kts | 53° |
| 2026-04-26 19:03 | 61.40789 | 33.29076 | 9548 ft | 263 kts | 53° |
| 2026-04-26 19:04 | 61.41853 | 33.32081 | 9405 ft | 256 kts | 53° |
| 2026-04-26 19:04 | 61.42908 | 33.35063 | 9074 ft | 255 kts | 53° |
| 2026-04-26 19:04 | 61.43948 | 33.38012 | 8763 ft | 253 kts | 53° |
| 2026-04-26 19:04 | 61.44987 | 33.40959 | 8458 ft | 251 kts | 53° |
| 2026-04-26 19:05 | 61.47019 | 33.46733 | 7881 ft | 246 kts | 53° |
| 2026-04-26 19:05 | 61.48031 | 33.49612 | 7612 ft | 243 kts | 53° |
| 2026-04-26 19:05 | 61.49015 | 33.52418 | 7342 ft | 241 kts | 53° |
| 2026-04-26 19:06 | 61.50009 | 33.55250 | 7074 ft | 238 kts | 53° |
| 2026-04-26 19:06 | 61.50976 | 33.58011 | 6808 ft | 235 kts | 53° |
| 2026-04-26 19:06 | 61.51935 | 33.60751 | 6539 ft | 233 kts | 54° |
| 2026-04-26 19:06 | 61.52883 | 33.63478 | 6266 ft | 232 kts | 53° |
| 2026-04-26 19:07 | 61.53836 | 33.66205 | 6001 ft | 231 kts | 53° |
| 2026-04-26 19:07 | 61.54771 | 33.68905 | 5738 ft | 229 kts | 53° |
| 2026-04-26 19:07 | 61.55691 | 33.71559 | 5495 ft | 227 kts | 53° |
| 2026-04-26 19:07 | 61.56612 | 33.74215 | 5240 ft | 226 kts | 53° |
| 2026-04-26 19:08 | 61.57532 | 33.76863 | 4993 ft | 224 kts | 53° |
| 2026-04-26 19:08 | 61.58447 | 33.79501 | 4756 ft | 221 kts | 53° |
| 2026-04-26 19:08 | 61.59346 | 33.82100 | 4522 ft | 219 kts | 53° |
| 2026-04-26 19:08 | 61.60231 | 33.84656 | 4278 ft | 218 kts | 53° |
| 2026-04-26 19:09 | 61.61112 | 33.87204 | 4034 ft | 216 kts | 53° |
| 2026-04-26 19:09 | 61.61988 | 33.89739 | 3786 ft | 215 kts | 53° |
| 2026-04-26 19:09 | 61.62977 | 33.92057 | 3532 ft | 213 kts | 40° |
| 2026-04-26 19:09 | 61.64220 | 33.93753 | 3289 ft | 212 kts | 27° |
| 2026-04-26 19:10 | 61.65558 | 33.94935 | 3057 ft | 211 kts | 23° |
| 2026-04-26 19:10 | 61.66916 | 33.96030 | 2812 ft | 209 kts | 24° |
| 2026-04-26 19:10 | 61.68269 | 33.97164 | 2557 ft | 208 kts | 24° |
| 2026-04-26 19:10 | 61.69604 | 33.98329 | 2302 ft | 208 kts | 24° |
| 2026-04-26 19:11 | 61.70928 | 33.99517 | 2095 ft | 206 kts | 25° |
| 2026-04-26 19:11 | 61.72212 | 34.00684 | 2035 ft | 196 kts | 24° |
| 2026-04-26 19:11 | 61.73441 | 34.01805 | 1942 ft | 185 kts | 24° |
| 2026-04-26 19:11 | 61.74611 | 34.02873 | 1938 ft | 179 kts | 24° |
| 2026-04-26 19:12 | 61.75701 | 34.03866 | 1915 ft | 167 kts | 24° |
| 2026-04-26 19:12 | 61.76742 | 34.04813 | 2012 ft | 156 kts | 24° |
| 2026-04-26 19:12 | 61.77692 | 34.05675 | 1988 ft | 139 kts | 25° |
| 2026-04-26 19:12 | 61.78503 | 34.06411 | 1982 ft | 116 kts | 25° |
| 2026-04-26 19:13 | 61.79213 | 34.07054 | 1944 ft | 107 kts | 25° |
| 2026-04-26 19:13 | 61.79895 | 34.07676 | 1810 ft | 107 kts | 24° |
| 2026-04-26 19:13 | 61.80572 | 34.08290 | 1670 ft | 106 kts | 24° |
| 2026-04-26 19:13 | 61.81254 | 34.08909 | 1520 ft | 106 kts | 24° |
| 2026-04-26 19:14 | 61.81931 | 34.09520 | 1375 ft | 107 kts | 24° |
| 2026-04-26 19:14 | 61.82620 | 34.10145 | 1223 ft | 109 kts | 24° |
| 2026-04-26 19:14 | 61.83321 | 34.10778 | 1071 ft | 111 kts | 24° |
| 2026-04-26 19:14 | 61.83797 | 34.11211 | 975 ft | 112 kts | 23° |
| 2026-04-26 19:15 | 61.84758 | 34.12082 | 759 ft | 115 kts | 23° |
| 2026-04-26 19:15 | 61.85483 | 34.12737 | 599 ft | 112 kts | 24° |
| 2026-04-26 19:15 | 61.86196 | 34.13382 | 435 ft | 112 kts | 23° |
| 2026-04-26 19:15 | 61.86916 | 34.14030 | 288 ft | 115 kts | 22° |
| 2026-04-26 19:16 | 61.87664 | 34.14700 | 176 ft | 118 kts | 24° |
| 2026-04-26 19:16 | 61.88334 | 34.15320 | 137 ft | 70 kts | 23° |
| 2026-04-26 19:16 | 61.88593 | 34.15547 | 139 ft | 14 kts | 21° |
| 2026-04-26 19:16 | 61.88607 | 34.15559 | 139 ft | 0 kts | 21° |